createdAt,value
2018-08-10T00:08:35.462Z,51.50
2018-08-10T00:18:40.169Z,51.70
2018-08-10T00:28:45.130Z,51.50
2018-08-10T00:38:50.214Z,51.80
2018-08-10T00:48:54.987Z,51.70
2018-08-10T04:20:13.216Z,51.10
2018-08-10T04:30:18.068Z,51.10
2018-08-10T04:40:23.967Z,51.10
2018-08-10T04:50:28.984Z,51.10
2018-08-10T05:00:33.844Z,51.10
2018-08-10T05:10:38.713Z,51.00
2018-08-10T05:20:43.451Z,51.10
2018-08-10T05:30:48.175Z,51.00
2018-08-10T05:40:53.475Z,51.20
2018-08-10T05:50:58.793Z,50.60
2018-08-10T06:01:03.702Z,51.50
2018-08-10T06:11:08.938Z,52.10
2018-08-10T06:21:15.060Z,51.90
2018-08-10T06:31:24.078Z,51.60
2018-08-10T06:41:33.602Z,51.60
2018-08-10T06:51:43.516Z,52.10
2018-08-10T07:01:52.870Z,52.30
2018-08-10T07:11:57.685Z,54.30
2018-08-10T07:22:02.660Z,54.10
2018-08-10T07:32:07.355Z,54.30
2018-08-10T07:42:12.253Z,55.10
2018-08-10T07:52:17.412Z,55.90
2018-08-10T08:02:22.097Z,56.00
2018-08-10T08:12:27.078Z,56.20
2018-08-10T08:22:31.955Z,56.50
2018-08-10T08:32:36.743Z,56.10
2018-08-10T08:42:42.506Z,55.60
2018-08-10T08:52:48.139Z,55.20
2018-08-10T09:02:53.394Z,55.10
2018-08-10T09:12:58.127Z,55.00
2018-08-10T09:23:02.774Z,55.00
2018-08-10T09:33:08.019Z,55.00
2018-08-10T09:43:12.879Z,55.00
2018-08-10T09:53:17.758Z,54.90
2018-08-10T10:03:24.084Z,55.00
2018-08-10T10:13:28.691Z,55.10
2018-08-10T10:23:33.793Z,55.10
2018-08-10T10:33:38.519Z,55.10
2018-08-10T10:43:43.276Z,55.20
2018-08-10T10:53:48.162Z,55.40
2018-08-10T11:03:53.356Z,55.60
2018-08-10T11:13:58.135Z,57.10
2018-08-10T11:24:03.139Z,60.00
2018-08-10T11:34:08.763Z,61.40
2018-08-10T11:44:14.071Z,60.90
2018-08-10T11:54:19.156Z,59.90
2018-08-10T12:04:23.984Z,60.00
2018-08-10T12:14:31.061Z,58.50
2018-08-10T12:24:36.050Z,56.60
2018-08-10T12:34:40.730Z,51.50
2018-08-10T12:44:45.500Z,52.70
2018-08-10T12:54:50.165Z,52.10
2018-08-10T13:04:55.010Z,51.60
2018-08-10T13:15:00.039Z,51.80
2018-08-10T13:25:05.917Z,52.70
2018-08-10T13:35:11.199Z,52.30
2018-08-10T13:45:15.980Z,53.00
2018-08-10T13:55:20.993Z,53.70
2018-08-10T14:05:25.901Z,51.90
2018-08-10T14:15:30.716Z,50.40
2018-08-10T14:25:35.674Z,51.20
2018-08-10T14:35:41.012Z,52.30
2018-08-10T14:45:46.020Z,52.50
2018-08-10T14:55:50.759Z,53.20
2018-08-10T15:05:55.489Z,53.00
2018-08-10T15:16:01.142Z,52.90
2018-08-10T15:26:06.068Z,53.00
2018-08-10T15:36:11.011Z,53.20
2018-08-10T15:46:15.978Z,53.40
2018-08-10T15:56:20.987Z,53.40
2018-08-10T16:06:25.883Z,53.50
2018-08-10T16:17:03.439Z,53.50
2018-08-10T16:27:09.344Z,53.50
2018-08-10T16:37:14.249Z,53.50
2018-08-10T16:47:18.879Z,53.60
2018-08-10T16:57:23.768Z,53.60
2018-08-10T17:07:28.432Z,53.70
2018-08-10T17:17:33.354Z,53.70
2018-08-10T17:27:39.087Z,53.70
2018-08-10T17:37:44.828Z,53.70
2018-08-10T17:47:49.701Z,53.70
2018-08-10T17:57:54.597Z,53.70
2018-08-10T18:07:59.598Z,53.70
2018-08-10T18:18:04.447Z,53.80
2018-08-10T18:28:09.955Z,53.60
2018-08-10T18:38:14.871Z,53.60
2018-08-10T18:48:19.623Z,52.70
2018-08-10T18:58:24.507Z,52.80
2018-08-10T19:08:29.181Z,52.70
2018-08-10T19:18:33.958Z,52.50
2018-08-10T19:28:39.057Z,52.80
2018-08-10T19:38:44.025Z,51.90
2018-08-10T19:48:48.907Z,51.40
2018-08-10T19:58:53.925Z,51.90
2018-08-10T20:08:59.094Z,52.80
2018-08-10T20:19:03.886Z,53.20
2018-08-10T20:29:08.800Z,53.60
2018-08-10T20:39:13.791Z,53.30
2018-08-10T20:49:19.434Z,52.90
2018-08-10T20:59:24.639Z,52.90
2018-08-10T21:09:29.377Z,51.50
2018-08-10T21:19:35.455Z,50.70
2018-08-10T21:29:40.720Z,50.20
2018-08-10T21:39:45.879Z,49.80
2018-08-10T21:49:55.209Z,49.70
2018-08-10T22:00:00.358Z,49.30
2018-08-10T22:10:06.325Z,49.40
2018-08-10T22:20:11.164Z,49.40
2018-08-10T22:30:16.157Z,49.40
2018-08-10T22:40:21.814Z,49.60
2018-08-10T22:50:27.102Z,50.00
2018-08-10T23:00:32.143Z,50.10
2018-08-10T23:10:37.024Z,50.30
2018-08-10T23:20:42.793Z,50.50
2018-08-10T23:30:47.612Z,50.70
2018-08-10T23:40:52.287Z,50.80
2018-08-10T23:50:57.073Z,51.00
